UPS367 KPHX-KONT
Flight info
| Callsign | UPS367 |
|---|---|
| Flight time | 0h 48m |
| Altitude | 32000 |
| Route | KEENS3 HRRBR PHRED SCBBY2 |
| Aircraft | MD11/H-SDE1E2E3FGHIJ2J3J4J5M1RWXYZ/LB1D1 |
Departure
| Time | 2026-05-05 03:44 |
|---|---|
| Airport | Phoenix Sky Harbor International Airport (KPHX) |
Arrival
| Time | 2026-05-05 04:32 |
|---|---|
| Airport | Ontario International Airport (KONT) |
| Time | Latitude | Longitude | Altitude | Speed | Heading |
|---|---|---|---|---|---|
| 2026-05-05 03:20 | 33.42406 | -112.01803 | 1126 ft | 0 kts | 89° |
| 2026-05-05 03:36 | 33.42406 | -112.01794 | 1127 ft | 3 kts | 89° |
| 2026-05-05 03:36 | 33.42420 | -112.01744 | 1127 ft | 9 kts | 41° |
| 2026-05-05 03:37 | 33.42500 | -112.01730 | 1127 ft | 13 kts | 359° |
| 2026-05-05 03:37 | 33.42598 | -112.01730 | 1127 ft | 14 kts | 0° |
| 2026-05-05 03:37 | 33.42697 | -112.01730 | 1128 ft | 13 kts | 0° |
| 2026-05-05 03:37 | 33.42754 | -112.01676 | 1128 ft | 11 kts | 78° |
| 2026-05-05 03:38 | 33.42758 | -112.01573 | 1128 ft | 13 kts | 89° |
| 2026-05-05 03:38 | 33.42757 | -112.01449 | 1129 ft | 15 kts | 91° |
| 2026-05-05 03:38 | 33.42756 | -112.01317 | 1129 ft | 16 kts | 90° |
| 2026-05-05 03:38 | 33.42757 | -112.01178 | 1130 ft | 16 kts | 90° |
| 2026-05-05 03:39 | 33.42757 | -112.01040 | 1131 ft | 17 kts | 90° |
| 2026-05-05 03:39 | 33.42757 | -112.00896 | 1131 ft | 17 kts | 90° |
| 2026-05-05 03:39 | 33.42757 | -112.00748 | 1131 ft | 18 kts | 90° |
| 2026-05-05 03:39 | 33.42758 | -112.00597 | 1132 ft | 13 kts | 88° |
| 2026-05-05 03:40 | 33.42782 | -112.00530 | 1132 ft | 9 kts | 32° |
| 2026-05-05 03:40 | 33.42847 | -112.00520 | 1132 ft | 9 kts | 3° |
| 2026-05-05 03:40 | 33.42916 | -112.00496 | 1132 ft | 10 kts | 19° |
| 2026-05-05 03:40 | 33.42973 | -112.00442 | 1133 ft | 12 kts | 74° |
| 2026-05-05 03:41 | 33.42976 | -112.00322 | 1133 ft | 16 kts | 90° |
| 2026-05-05 03:41 | 33.42976 | -112.00181 | 1132 ft | 17 kts | 90° |
| 2026-05-05 03:41 | 33.42976 | -112.00030 | 1132 ft | 18 kts | 90° |
| 2026-05-05 03:41 | 33.42976 | -111.99872 | 1132 ft | 19 kts | 90° |
| 2026-05-05 03:42 | 33.42976 | -111.99710 | 1132 ft | 19 kts | 90° |
| 2026-05-05 03:42 | 33.42977 | -111.99542 | 1133 ft | 20 kts | 90° |
| 2026-05-05 03:42 | 33.42977 | -111.99418 | 1133 ft | 6 kts | 89° |
| 2026-05-05 03:42 | 33.42982 | -111.99367 | 1133 ft | 6 kts | 63° |
| 2026-05-05 03:43 | 33.43021 | -111.99341 | 1133 ft | 7 kts | 11° |
| 2026-05-05 03:43 | 33.43072 | -111.99349 | 1133 ft | 7 kts | 323° |
| 2026-05-05 03:43 | 33.43086 | -111.99416 | 1133 ft | 9 kts | 270° |
| 2026-05-05 03:43 | 33.43087 | -111.99568 | 1133 ft | 42 kts | 270° |
| 2026-05-05 03:44 | 33.43087 | -112.00247 | 1133 ft | 118 kts | 270° |
| 2026-05-05 03:44 | 33.43087 | -112.01490 | 1135 ft | 177 kts | 269° |
| 2026-05-05 03:44 | 33.43077 | -112.03015 | 1595 ft | 184 kts | 269° |
| 2026-05-05 03:44 | 33.43022 | -112.04526 | 2277 ft | 184 kts | 263° |
| 2026-05-05 03:45 | 33.42878 | -112.06001 | 3036 ft | 181 kts | 260° |
| 2026-05-05 03:45 | 33.42715 | -112.07484 | 3635 ft | 182 kts | 253° |
| 2026-05-05 03:45 | 33.42350 | -112.08938 | 4248 ft | 182 kts | 251° |
| 2026-05-05 03:45 | 33.41958 | -112.10440 | 4566 ft | 203 kts | 251° |
| 2026-05-05 03:46 | 33.41505 | -112.12135 | 4908 ft | 225 kts | 249° |
| 2026-05-05 03:46 | 33.40944 | -112.13946 | 5425 ft | 240 kts | 247° |
| 2026-05-05 03:46 | 33.40306 | -112.15878 | 5966 ft | 260 kts | 247° |
| 2026-05-05 03:46 | 33.39637 | -112.17936 | 6860 ft | 268 kts | 250° |
| 2026-05-05 03:47 | 33.39264 | -112.20119 | 7749 ft | 276 kts | 260° |
| 2026-05-05 03:47 | 33.39279 | -112.22410 | 8678 ft | 282 kts | 275° |
| 2026-05-05 03:47 | 33.39627 | -112.24752 | 9559 ft | 289 kts | 277° |
| 2026-05-05 03:47 | 33.40010 | -112.27095 | 10436 ft | 294 kts | 278° |
| 2026-05-05 03:48 | 33.40432 | -112.29592 | 10730 ft | 322 kts | 278° |
| 2026-05-05 03:48 | 33.40874 | -112.32346 | 10928 ft | 351 kts | 277° |
| 2026-05-05 03:48 | 33.41319 | -112.35267 | 11526 ft | 365 kts | 277° |
| 2026-05-05 03:48 | 33.41770 | -112.38268 | 12400 ft | 371 kts | 277° |
| 2026-05-05 03:49 | 33.42227 | -112.41333 | 13361 ft | 374 kts | 278° |
| 2026-05-05 03:49 | 33.42682 | -112.44387 | 14296 ft | 377 kts | 277° |
| 2026-05-05 03:49 | 33.43142 | -112.47451 | 15216 ft | 379 kts | 277° |
| 2026-05-05 03:49 | 33.43601 | -112.50545 | 16154 ft | 380 kts | 277° |
| 2026-05-05 03:50 | 33.44056 | -112.53632 | 17012 ft | 383 kts | 277° |
| 2026-05-05 03:50 | 33.44524 | -112.56795 | 17902 ft | 384 kts | 277° |
| 2026-05-05 03:50 | 33.44949 | -112.59946 | 18643 ft | 386 kts | 273° |
| 2026-05-05 03:50 | 33.45130 | -112.63142 | 19318 ft | 388 kts | 267° |
| 2026-05-05 03:51 | 33.45152 | -112.66364 | 20065 ft | 390 kts | 265° |
| 2026-05-05 03:51 | 33.45171 | -112.69602 | 20757 ft | 393 kts | 265° |
| 2026-05-05 03:51 | 33.45200 | -112.72888 | 21411 ft | 398 kts | 265° |
| 2026-05-05 03:51 | 33.45237 | -112.76196 | 22062 ft | 401 kts | 264° |
| 2026-05-05 03:52 | 33.45341 | -112.79531 | 22677 ft | 408 kts | 268° |
| 2026-05-05 03:52 | 33.45748 | -112.82926 | 23318 ft | 417 kts | 273° |
| 2026-05-05 03:52 | 33.46384 | -112.86334 | 23965 ft | 421 kts | 275° |
| 2026-05-05 03:52 | 33.47034 | -112.89735 | 24671 ft | 421 kts | 274° |
| 2026-05-05 03:53 | 33.47683 | -112.93175 | 25374 ft | 421 kts | 274° |
| 2026-05-05 03:53 | 33.48311 | -112.96581 | 25972 ft | 423 kts | 274° |
| 2026-05-05 03:53 | 33.48944 | -112.99991 | 26694 ft | 422 kts | 274° |
| 2026-05-05 03:53 | 33.49580 | -113.03427 | 27327 ft | 422 kts | 274° |
| 2026-05-05 03:54 | 33.50208 | -113.06861 | 27860 ft | 425 kts | 274° |
| 2026-05-05 03:54 | 33.50840 | -113.10288 | 28407 ft | 426 kts | 274° |
| 2026-05-05 03:54 | 33.51474 | -113.13759 | 28964 ft | 427 kts | 274° |
| 2026-05-05 03:54 | 33.52114 | -113.17226 | 29606 ft | 426 kts | 273° |
| 2026-05-05 03:55 | 33.52760 | -113.20669 | 30245 ft | 424 kts | 273° |
| 2026-05-05 03:55 | 33.53394 | -113.24097 | 30976 ft | 419 kts | 273° |
| 2026-05-05 03:55 | 33.54039 | -113.27543 | 31590 ft | 418 kts | 272° |
| 2026-05-05 03:55 | 33.54657 | -113.30894 | 31851 ft | 416 kts | 272° |
| 2026-05-05 03:56 | 33.55905 | -113.37623 | 31915 ft | 412 kts | 271° |
| 2026-05-05 03:56 | 33.57154 | -113.44331 | 31935 ft | 413 kts | 272° |
| 2026-05-05 03:57 | 33.58405 | -113.51022 | 31929 ft | 413 kts | 272° |
| 2026-05-05 03:57 | 33.59647 | -113.57734 | 31931 ft | 414 kts | 271° |
| 2026-05-05 03:58 | 33.60880 | -113.64445 | 31927 ft | 412 kts | 272° |
| 2026-05-05 03:58 | 33.62134 | -113.71162 | 31934 ft | 412 kts | 271° |
| 2026-05-05 03:59 | 33.63366 | -113.77823 | 31931 ft | 410 kts | 271° |
| 2026-05-05 03:59 | 33.64392 | -113.84511 | 31911 ft | 405 kts | 266° |
| 2026-05-05 04:00 | 33.64827 | -113.91163 | 31921 ft | 397 kts | 261° |
| 2026-05-05 04:00 | 33.64780 | -113.97790 | 31914 ft | 395 kts | 260° |
| 2026-05-05 04:01 | 33.64691 | -114.04375 | 31906 ft | 395 kts | 259° |
| 2026-05-05 04:01 | 33.64759 | -114.10980 | 31896 ft | 398 kts | 263° |
| 2026-05-05 04:02 | 33.65180 | -114.17651 | 31905 ft | 405 kts | 266° |
| 2026-05-05 04:02 | 33.65772 | -114.24361 | 31888 ft | 405 kts | 266° |
| 2026-05-05 04:03 | 33.66381 | -114.31068 | 31887 ft | 405 kts | 266° |
| 2026-05-05 04:03 | 33.67008 | -114.37781 | 31884 ft | 406 kts | 265° |
| 2026-05-05 04:04 | 33.67636 | -114.44486 | 31874 ft | 408 kts | 265° |
| 2026-05-05 04:04 | 33.68272 | -114.51262 | 31864 ft | 408 kts | 266° |
| 2026-05-05 04:05 | 33.68917 | -114.58043 | 31874 ft | 409 kts | 266° |
| 2026-05-05 04:05 | 33.69558 | -114.64797 | 31865 ft | 410 kts | 265° |
| 2026-05-05 04:06 | 33.70204 | -114.71575 | 31875 ft | 410 kts | 265° |
| 2026-05-05 04:06 | 33.70862 | -114.78363 | 31859 ft | 409 kts | 265° |
| 2026-05-05 04:07 | 33.71515 | -114.85161 | 31865 ft | 410 kts | 265° |
| 2026-05-05 04:07 | 33.72172 | -114.91953 | 31861 ft | 411 kts | 265° |
| 2026-05-05 04:08 | 33.72837 | -114.98727 | 31860 ft | 411 kts | 265° |
| 2026-05-05 04:08 | 33.73512 | -115.05537 | 31854 ft | 412 kts | 265° |
| 2026-05-05 04:09 | 33.74181 | -115.12357 | 31855 ft | 412 kts | 265° |
| 2026-05-05 04:09 | 33.74861 | -115.19189 | 31868 ft | 412 kts | 266° |
| 2026-05-05 04:10 | 33.75551 | -115.25972 | 31865 ft | 411 kts | 265° |
| 2026-05-05 04:10 | 33.75890 | -115.29381 | 31635 ft | 414 kts | 266° |
| 2026-05-05 04:10 | 33.76238 | -115.32835 | 31081 ft | 414 kts | 266° |
| 2026-05-05 04:11 | 33.76593 | -115.36259 | 30496 ft | 413 kts | 266° |
| 2026-05-05 04:11 | 33.76943 | -115.39667 | 29779 ft | 413 kts | 266° |
| 2026-05-05 04:11 | 33.77285 | -115.43063 | 28861 ft | 417 kts | 266° |
| 2026-05-05 04:11 | 33.77634 | -115.46513 | 28292 ft | 420 kts | 268° |
| 2026-05-05 04:12 | 33.77998 | -115.50038 | 27716 ft | 424 kts | 269° |
| 2026-05-05 04:12 | 33.78361 | -115.53573 | 27158 ft | 428 kts | 268° |
| 2026-05-05 04:12 | 33.78725 | -115.57094 | 26596 ft | 431 kts | 269° |
| 2026-05-05 04:12 | 33.79105 | -115.60719 | 26069 ft | 436 kts | 270° |
| 2026-05-05 04:13 | 33.79475 | -115.64358 | 25713 ft | 441 kts | 269° |
| 2026-05-05 04:13 | 33.79823 | -115.68018 | 25364 ft | 441 kts | 269° |
| 2026-05-05 04:13 | 33.80172 | -115.71635 | 25004 ft | 439 kts | 270° |
| 2026-05-05 04:13 | 33.80527 | -115.75239 | 24656 ft | 436 kts | 270° |
| 2026-05-05 04:14 | 33.80884 | -115.78884 | 24291 ft | 433 kts | 271° |
| 2026-05-05 04:14 | 33.81235 | -115.82439 | 23946 ft | 430 kts | 271° |
| 2026-05-05 04:14 | 33.81592 | -115.86019 | 23593 ft | 429 kts | 271° |
| 2026-05-05 04:14 | 33.81944 | -115.89574 | 23241 ft | 429 kts | 272° |
| 2026-05-05 04:15 | 33.82297 | -115.93098 | 22867 ft | 429 kts | 272° |
| 2026-05-05 04:15 | 33.82656 | -115.96655 | 22511 ft | 428 kts | 272° |
| 2026-05-05 04:15 | 33.83009 | -116.00174 | 22157 ft | 427 kts | 272° |
| 2026-05-05 04:15 | 33.83357 | -116.03716 | 21808 ft | 427 kts | 273° |
| 2026-05-05 04:16 | 33.83719 | -116.07269 | 21423 ft | 426 kts | 272° |
| 2026-05-05 04:16 | 33.84073 | -116.10787 | 21065 ft | 425 kts | 273° |
| 2026-05-05 04:16 | 33.84432 | -116.14314 | 20783 ft | 426 kts | 273° |
| 2026-05-05 04:16 | 33.84785 | -116.17819 | 20384 ft | 425 kts | 273° |
| 2026-05-05 04:17 | 33.85142 | -116.21352 | 20005 ft | 424 kts | 274° |
| 2026-05-05 04:17 | 33.85501 | -116.24878 | 19635 ft | 424 kts | 274° |
| 2026-05-05 04:17 | 33.85857 | -116.28360 | 19254 ft | 423 kts | 274° |
| 2026-05-05 04:17 | 33.86232 | -116.31899 | 18894 ft | 422 kts | 275° |
| 2026-05-05 04:18 | 33.86611 | -116.35381 | 18524 ft | 421 kts | 275° |
| 2026-05-05 04:18 | 33.86988 | -116.38831 | 18167 ft | 420 kts | 275° |
| 2026-05-05 04:18 | 33.87366 | -116.42320 | 17777 ft | 419 kts | 275° |
| 2026-05-05 04:18 | 33.87814 | -116.45792 | 17466 ft | 419 kts | 279° |
| 2026-05-05 04:19 | 33.88525 | -116.49146 | 16905 ft | 422 kts | 284° |
| 2026-05-05 04:19 | 33.89393 | -116.52520 | 16211 ft | 419 kts | 285° |
| 2026-05-05 04:19 | 33.90252 | -116.55840 | 15535 ft | 414 kts | 284° |
| 2026-05-05 04:19 | 33.91097 | -116.59128 | 14936 ft | 409 kts | 284° |
| 2026-05-05 04:20 | 33.91917 | -116.62341 | 14386 ft | 404 kts | 285° |
| 2026-05-05 04:20 | 33.92733 | -116.65559 | 13836 ft | 400 kts | 284° |
| 2026-05-05 04:20 | 33.93542 | -116.68757 | 13307 ft | 397 kts | 284° |
| 2026-05-05 04:20 | 33.94257 | -116.71921 | 12791 ft | 393 kts | 280° |
| 2026-05-05 04:21 | 33.94688 | -116.75151 | 12418 ft | 390 kts | 274° |
| 2026-05-05 04:21 | 33.94754 | -116.78397 | 12041 ft | 388 kts | 267° |
| 2026-05-05 04:21 | 33.94639 | -116.81631 | 11726 ft | 382 kts | 266° |
| 2026-05-05 04:21 | 33.94516 | -116.84763 | 11419 ft | 368 kts | 266° |
| 2026-05-05 04:22 | 33.94405 | -116.87761 | 11131 ft | 354 kts | 266° |
| 2026-05-05 04:22 | 33.94301 | -116.90680 | 10863 ft | 340 kts | 266° |
| 2026-05-05 04:22 | 33.94249 | -116.93463 | 10628 ft | 325 kts | 270° |
| 2026-05-05 04:22 | 33.94432 | -116.96116 | 10403 ft | 312 kts | 278° |
| 2026-05-05 04:23 | 33.94898 | -116.98595 | 10219 ft | 301 kts | 287° |
| 2026-05-05 04:23 | 33.95655 | -117.00899 | 10092 ft | 292 kts | 292° |
| 2026-05-05 04:23 | 33.96454 | -117.03103 | 10008 ft | 285 kts | 292° |
| 2026-05-05 04:23 | 33.97231 | -117.05260 | 9843 ft | 279 kts | 292° |
| 2026-05-05 04:24 | 33.97986 | -117.07391 | 9488 ft | 274 kts | 291° |
| 2026-05-05 04:24 | 33.98723 | -117.09495 | 9091 ft | 270 kts | 291° |
| 2026-05-05 04:24 | 33.99440 | -117.11553 | 8734 ft | 264 kts | 291° |
| 2026-05-05 04:25 | 34.00828 | -117.15531 | 8067 ft | 250 kts | 291° |
| 2026-05-05 04:25 | 34.01452 | -117.17426 | 7747 ft | 243 kts | 289° |
| 2026-05-05 04:25 | 34.01961 | -117.19325 | 7444 ft | 234 kts | 284° |
| 2026-05-05 04:25 | 34.02375 | -117.21218 | 7167 ft | 230 kts | 284° |
| 2026-05-05 04:26 | 34.02772 | -117.23075 | 6859 ft | 228 kts | 284° |
| 2026-05-05 04:26 | 34.03162 | -117.24886 | 6518 ft | 219 kts | 284° |
| 2026-05-05 04:26 | 34.03538 | -117.26631 | 6169 ft | 212 kts | 284° |
| 2026-05-05 04:26 | 34.03895 | -117.28284 | 5831 ft | 203 kts | 284° |
| 2026-05-05 04:27 | 34.04248 | -117.29907 | 5507 ft | 198 kts | 284° |
| 2026-05-05 04:27 | 34.04597 | -117.31522 | 5196 ft | 198 kts | 284° |
| 2026-05-05 04:27 | 34.04942 | -117.33133 | 4895 ft | 199 kts | 284° |
| 2026-05-05 04:27 | 34.05244 | -117.34752 | 4599 ft | 200 kts | 279° |
| 2026-05-05 04:28 | 34.05410 | -117.36416 | 4329 ft | 200 kts | 274° |
| 2026-05-05 04:28 | 34.05477 | -117.38075 | 3993 ft | 194 kts | 272° |
| 2026-05-05 04:28 | 34.05500 | -117.39638 | 3906 ft | 182 kts | 271° |
| 2026-05-05 04:28 | 34.05509 | -117.41155 | 3698 ft | 176 kts | 271° |
| 2026-05-05 04:29 | 34.05513 | -117.42587 | 3432 ft | 166 kts | 271° |
| 2026-05-05 04:29 | 34.05515 | -117.43957 | 3266 ft | 162 kts | 271° |
| 2026-05-05 04:29 | 34.05499 | -117.45320 | 3128 ft | 163 kts | 269° |
| 2026-05-05 04:29 | 34.05450 | -117.46671 | 2918 ft | 163 kts | 268° |
| 2026-05-05 04:30 | 34.05431 | -117.48037 | 2668 ft | 163 kts | 271° |
| 2026-05-05 04:30 | 34.05477 | -117.49397 | 2412 ft | 160 kts | 272° |
| 2026-05-05 04:30 | 34.05500 | -117.50726 | 2172 ft | 160 kts | 269° |
| 2026-05-05 04:30 | 34.05487 | -117.52074 | 1981 ft | 160 kts | 269° |
| 2026-05-05 04:31 | 34.05490 | -117.53393 | 1750 ft | 157 kts | 270° |
| 2026-05-05 04:31 | 34.05495 | -117.54701 | 1533 ft | 156 kts | 268° |
| 2026-05-05 04:31 | 34.05491 | -117.55990 | 1357 ft | 155 kts | 270° |
| 2026-05-05 04:31 | 34.05496 | -117.57288 | 1152 ft | 156 kts | 269° |
| 2026-05-05 04:32 | 34.05493 | -117.58601 | 961 ft | 154 kts | 269° |
| 2026-05-05 04:32 | 34.05495 | -117.59773 | 956 ft | 118 kts | 270° |
| 2026-05-05 04:32 | 34.05495 | -117.60467 | 956 ft | 60 kts | 270° |
| 2026-05-05 04:32 | 34.05495 | -117.60922 | 956 ft | 34 kts | 270° |
| 2026-05-05 04:33 | 34.05489 | -117.61096 | 956 ft | 15 kts | 254° |
| 2026-05-05 04:33 | 34.05439 | -117.61181 | 956 ft | 8 kts | 207° |
| 2026-05-05 04:33 | 34.05390 | -117.61155 | 956 ft | 9 kts | 110° |
| 2026-05-05 04:33 | 34.05387 | -117.61069 | 956 ft | 11 kts | 89° |
| 2026-05-05 04:34 | 34.05388 | -117.60971 | 956 ft | 12 kts | 90° |
| 2026-05-05 04:34 | 34.05387 | -117.60859 | 956 ft | 14 kts | 91° |
| 2026-05-05 04:34 | 34.05386 | -117.60738 | 956 ft | 15 kts | 90° |
| 2026-05-05 04:34 | 34.05387 | -117.60585 | 956 ft | 19 kts | 90° |
| 2026-05-05 04:35 | 34.05387 | -117.60413 | 956 ft | 21 kts | 90° |
| 2026-05-05 04:35 | 34.05387 | -117.60229 | 956 ft | 22 kts | 90° |
| 2026-05-05 04:35 | 34.05386 | -117.60032 | 956 ft | 23 kts | 90° |
| 2026-05-05 04:35 | 34.05386 | -117.59829 | 956 ft | 24 kts | 90° |
| 2026-05-05 04:36 | 34.05386 | -117.59615 | 956 ft | 25 kts | 90° |
| 2026-05-05 04:36 | 34.05386 | -117.59396 | 956 ft | 26 kts | 90° |
| 2026-05-05 04:36 | 34.05387 | -117.59168 | 956 ft | 27 kts | 91° |
| 2026-05-05 04:36 | 34.05387 | -117.58935 | 956 ft | 28 kts | 90° |
| 2026-05-05 04:37 | 34.05387 | -117.58692 | 955 ft | 29 kts | 90° |
| 2026-05-05 04:37 | 34.05387 | -117.58465 | 955 ft | 19 kts | 90° |
| 2026-05-05 04:37 | 34.05387 | -117.58341 | 955 ft | 12 kts | 89° |
| 2026-05-05 04:37 | 34.05350 | -117.58271 | 955 ft | 11 kts | 170° |
| 2026-05-05 04:38 | 34.05272 | -117.58246 | 955 ft | 12 kts | 143° |
| 2026-05-05 04:38 | 34.05243 | -117.58153 | 955 ft | 13 kts | 90° |
| 2026-05-05 04:38 | 34.05228 | -117.58080 | 955 ft | 7 kts | 142° |
| 2026-05-05 04:38 | 34.05161 | -117.58071 | 955 ft | 11 kts | 179° |
| 2026-05-05 04:39 | 34.05078 | -117.58071 | 955 ft | 12 kts | 180° |
| 2026-05-05 04:39 | 34.04995 | -117.58070 | 955 ft | 10 kts | 180° |
| 2026-05-05 04:39 | 34.04958 | -117.58070 | 955 ft | 3 kts | 173° |
| 2026-05-05 04:39 | 34.04942 | -117.58041 | 955 ft | 6 kts | 92° |
| 2026-05-05 04:40 | 34.04941 | -117.58003 | 955 ft | 3 kts | 91° |
| 2026-05-05 04:40 | 34.04941 | -117.57995 | 955 ft | 0 kts | 90° |